South Chase, Wisconsin
Current Conditions -  °F | °C
As of 3:53 PM on Friday 24 Oct 2014 (Local Time) from KGRB Reporting Station
Broken Clouds Broken Clouds  
Wind Chill: 53°   Ceiling: 900
Heat Index: 53°   Visibility: 7mi
Dew Point: 49°   Wind: 7mph
Humidity: 86%   Direction: NA
Pressure: 29.92"   Gusts: NA
Location:  44.6594°N, 88.2945°W
Report Text: KGRB 242053Z AUTO VRB06KT 7SM BKN009 12/09 A2992 RMK AO2 SLP135 T01170094 56019 TSNO
Loading
Personal Weather Stations






























Interactive Weather Map
Tropical Storm Tracking
New forecast layout! Learn more

10-Day Weather Forecast

Advertisements
Track Severe Weather on mobile